createdAt,value
2017-08-13T00:03:48.587Z,101077.34
2017-08-13T00:08:50.558Z,101080.69
2017-08-13T00:13:52.582Z,101075.28
2017-08-13T00:19:02.395Z,101083.24
2017-08-13T00:24:04.398Z,101088.52
2017-08-13T00:29:06.379Z,101084.73
2017-08-13T00:34:08.423Z,101080.87
2017-08-13T00:39:10.409Z,101087.42
2017-08-13T00:44:13.134Z,101083.73
2017-08-13T00:49:15.218Z,101093.02
2017-08-13T00:54:17.278Z,101094.78
2017-08-13T00:59:20.184Z,101098.72
2017-08-13T01:04:22.188Z,101104.02
2017-08-13T01:09:25.567Z,101106.08
2017-08-13T01:14:28.348Z,101106.11
2017-08-13T01:19:31.281Z,101114.79
2017-08-13T01:24:34.137Z,101123.52
2017-08-13T01:29:36.117Z,101127.61
2017-08-13T01:34:39.560Z,101133.70
2017-08-13T01:39:41.847Z,101135.14
2017-08-13T01:44:43.790Z,101144.00
2017-08-13T01:49:45.787Z,101150.80
2017-08-13T01:54:48.305Z,101152.08
2017-08-13T01:59:51.514Z,101154.41
2017-08-13T02:04:53.443Z,101152.39
2017-08-13T02:09:55.399Z,101150.84
2017-08-13T02:14:57.394Z,101151.38
2017-08-13T02:19:59.393Z,101156.84
2017-08-13T02:25:01.968Z,101151.45
2017-08-13T02:30:03.949Z,101164.09
2017-08-13T02:35:05.953Z,101152.08
2017-08-13T02:40:07.931Z,101162.78
2017-08-13T02:45:09.909Z,101163.63
2017-08-13T02:50:11.926Z,101164.16
2017-08-13T02:55:13.868Z,101161.52
2017-08-13T03:00:15.855Z,101170.55
2017-08-13T03:05:18.189Z,101167.67
2017-08-13T03:10:20.155Z,101178.12
2017-08-13T03:15:22.110Z,101182.03
2017-08-13T03:20:24.054Z,101175.08
2017-08-13T03:25:26.004Z,101179.66
2017-08-13T03:30:28.735Z,101188.90
2017-08-13T03:35:30.790Z,101189.87
2017-08-13T03:40:32.743Z,101192.75
2017-08-13T03:45:34.772Z,101190.02
2017-08-13T03:50:37.115Z,101191.14
2017-08-13T03:55:39.091Z,101180.98
2017-08-13T04:00:47.984Z,101185.52
2017-08-13T04:05:49.941Z,101179.95
2017-08-13T04:10:51.930Z,101183.31
2017-08-13T04:15:53.912Z,101188.59
2017-08-13T04:20:55.863Z,101193.25
2017-08-13T04:25:57.825Z,101201.80
2017-08-13T04:30:59.790Z,101207.64
2017-08-13T04:36:01.772Z,101214.77
2017-08-13T04:41:03.722Z,101220.11
2017-08-13T04:46:05.708Z,101221.62
2017-08-13T04:51:07.679Z,101228.08
2017-08-13T04:56:09.639Z,101235.13
2017-08-13T05:01:11.629Z,101240.72
2017-08-13T05:06:14.351Z,101248.13
2017-08-13T05:11:16.479Z,101261.65
2017-08-13T05:16:18.480Z,101263.03
2017-08-13T05:21:20.612Z,101268.41
2017-08-13T05:26:22.599Z,101270.67
2017-08-13T05:31:25.230Z,101279.41
2017-08-13T05:36:30.516Z,101285.20
2017-08-13T05:41:32.575Z,101283.69
2017-08-13T05:46:34.565Z,101292.56
2017-08-13T05:51:37.274Z,101308.12
2017-08-13T05:56:39.227Z,101319.37
2017-08-13T06:01:41.222Z,101310.95
2017-08-13T06:06:43.922Z,101317.89
2017-08-13T06:11:46.753Z,101323.70
2017-08-13T06:16:49.500Z,101321.70
2017-08-13T06:21:52.004Z,101327.60
2017-08-13T06:26:55.449Z,101333.95
2017-08-13T06:31:57.528Z,101338.53
2017-08-13T06:37:02.265Z,101348.08
2017-08-13T06:42:04.595Z,101354.34
2017-08-13T06:47:06.596Z,101358.61
2017-08-13T06:52:08.601Z,101367.00
2017-08-13T06:57:10.660Z,101368.92
2017-08-13T07:02:13.511Z,101375.52
2017-08-13T07:07:17.307Z,101374.23
2017-08-13T07:12:20.715Z,101373.52
2017-08-13T07:17:24.815Z,101372.03
2017-08-13T07:22:29.168Z,101383.56
2017-08-13T07:27:33.196Z,101388.39
2017-08-13T07:32:36.714Z,101398.02
2017-08-13T07:37:38.708Z,101403.01
2017-08-13T07:42:41.231Z,101397.70
2017-08-13T07:47:43.868Z,101388.59
2017-08-13T07:52:46.224Z,101410.02
2017-08-13T07:57:48.290Z,101413.97
2017-08-13T08:02:51.788Z,101406.59
2017-08-13T08:07:54.139Z,101410.88
2017-08-13T08:12:56.230Z,101413.90
2017-08-13T08:17:58.185Z,101414.59
2017-08-13T08:23:00.152Z,101418.19
2017-08-13T08:28:03.015Z,101416.36
2017-08-13T08:33:04.972Z,101418.73
2017-08-13T08:38:06.895Z,101427.52
2017-08-13T08:43:10.379Z,101429.95
2017-08-13T08:48:13.645Z,101428.63
2017-08-13T08:53:16.178Z,101437.05
2017-08-13T08:58:18.218Z,101429.76
2017-08-13T09:03:20.981Z,101436.13
2017-08-13T09:08:22.971Z,101439.40
2017-08-13T09:13:33.960Z,101431.73
2017-08-13T09:18:37.990Z,101432.84
2017-08-13T09:23:40.166Z,101445.30
2017-08-13T09:28:42.178Z,101445.88
2017-08-13T09:33:44.243Z,101449.25
2017-08-13T09:38:46.392Z,101456.00
2017-08-13T09:43:48.701Z,101447.26
2017-08-13T09:48:50.680Z,101432.48
2017-08-13T09:53:52.632Z,101437.10
2017-08-13T09:58:54.680Z,101448.73
2017-08-13T10:03:56.804Z,101439.78
2017-08-13T10:08:59.199Z,101441.32
2017-08-13T10:14:01.225Z,101445.69
2017-08-13T10:19:04.015Z,101434.58
2017-08-13T10:24:05.984Z,101438.95
2017-08-13T10:29:07.946Z,101446.30
2017-08-13T10:34:09.914Z,101429.63
2017-08-13T10:39:12.449Z,101445.88
2017-08-13T10:44:14.429Z,101449.08
2017-08-13T10:49:16.407Z,101455.58
2017-08-13T10:54:18.476Z,101460.13
2017-08-13T10:59:20.518Z,101451.85
2017-08-13T11:04:22.457Z,101453.87
2017-08-13T11:09:24.494Z,101448.69
2017-08-13T11:14:26.547Z,101450.59
2017-08-13T11:19:28.671Z,101458.06
2017-08-13T11:24:30.726Z,101459.20
2017-08-13T11:29:32.663Z,101457.48
2017-08-13T11:34:34.611Z,101455.25
2017-08-13T11:39:37.386Z,101459.97
2017-08-13T11:44:40.110Z,101459.32
2017-08-13T11:49:42.093Z,101463.83
2017-08-13T11:54:44.876Z,101469.28
2017-08-13T11:59:47.641Z,101481.30
2017-08-13T12:04:49.705Z,101479.26
2017-08-13T12:09:51.676Z,101480.30
2017-08-13T12:14:54.025Z,101476.20
2017-08-13T12:19:56.037Z,101486.09
2017-08-13T12:24:58.886Z,101481.44
2017-08-13T12:30:00.847Z,101497.48
2017-08-13T12:35:02.851Z,101492.68
2017-08-13T12:40:04.898Z,101493.27
2017-08-13T12:45:07.152Z,101484.23
2017-08-13T12:50:09.141Z,101497.59
2017-08-13T12:55:11.125Z,101491.59
2017-08-13T13:00:13.101Z,101497.83
2017-08-13T13:05:15.075Z,101503.61
2017-08-13T13:10:17.047Z,101514.84
2017-08-13T13:15:19.051Z,101516.86
2017-08-13T13:20:21.075Z,101527.47
2017-08-13T13:25:23.051Z,101530.69
2017-08-13T13:30:25.272Z,101538.16
2017-08-13T13:35:27.292Z,101537.14
2017-08-13T13:40:29.322Z,101537.20
2017-08-13T13:45:31.330Z,101540.47
2017-08-13T13:50:33.292Z,101551.69
2017-08-13T13:55:35.295Z,101560.73
2017-08-13T14:00:37.222Z,101556.70
2017-08-13T14:05:39.193Z,101564.39
2017-08-13T14:10:41.887Z,101558.70
2017-08-13T14:15:43.842Z,101561.33
2017-08-13T14:20:45.758Z,101563.41
2017-08-13T14:25:47.701Z,101565.94
2017-08-13T14:30:49.666Z,101560.71
2017-08-13T14:35:51.694Z,101565.30
2017-08-13T14:40:53.666Z,101564.47
2017-08-13T14:45:55.636Z,101573.20
2017-08-13T14:50:57.701Z,101568.27
2017-08-13T14:55:59.751Z,101585.94
2017-08-13T15:01:02.779Z,101587.67
2017-08-13T15:06:04.738Z,101584.28
2017-08-13T15:11:06.722Z,101590.34
2017-08-13T15:16:08.722Z,101584.92
2017-08-13T15:21:10.714Z,101591.78
2017-08-13T15:26:12.678Z,101595.31
2017-08-13T15:31:14.613Z,101590.73
2017-08-13T15:36:16.604Z,101590.94
2017-08-13T15:41:19.368Z,101590.42
2017-08-13T15:46:21.323Z,101583.77
2017-08-13T15:51:23.278Z,101587.13
2017-08-13T15:56:25.256Z,101590.52
2017-08-13T16:01:27.212Z,101585.58
2017-08-13T16:06:29.179Z,101595.16
2017-08-13T16:11:31.194Z,101598.48
2017-08-13T16:16:33.183Z,101590.00
2017-08-13T16:21:35.132Z,101600.88
2017-08-13T16:26:37.104Z,101599.83
2017-08-13T16:31:39.806Z,101604.90
2017-08-13T16:36:41.739Z,101607.41
2017-08-13T16:41:44.430Z,101607.50
2017-08-13T16:46:46.375Z,101611.58
2017-08-13T16:51:48.342Z,101612.16
2017-08-13T16:56:50.332Z,101611.47
2017-08-13T17:01:52.293Z,101615.20
2017-08-13T17:06:54.286Z,101618.03
2017-08-13T17:11:56.406Z,101616.25
2017-08-13T17:16:58.662Z,101621.92
2017-08-13T17:22:00.643Z,101614.77
2017-08-13T17:27:02.652Z,101619.27
2017-08-13T17:32:04.597Z,101621.95
2017-08-13T17:37:07.274Z,101614.01
2017-08-13T17:42:09.282Z,101617.57
2017-08-13T17:47:14.306Z,101624.31
2017-08-13T17:52:17.476Z,101623.21
2017-08-13T17:57:20.535Z,101624.16
2017-08-13T18:02:22.689Z,101622.19
2017-08-13T18:07:24.672Z,101629.34
2017-08-13T18:12:26.744Z,101631.78
2017-08-13T18:17:28.742Z,101643.95
2017-08-13T18:22:30.715Z,101643.78
2017-08-13T18:27:33.398Z,101644.56
2017-08-13T18:32:36.952Z,101653.49
2017-08-13T18:37:40.120Z,101648.55
2017-08-13T18:42:42.099Z,101647.51
2017-08-13T18:47:44.776Z,101660.96
2017-08-13T18:52:46.760Z,101667.16
2017-08-13T18:57:48.804Z,101676.80
2017-08-13T19:02:50.988Z,101677.89
2017-08-13T19:07:52.919Z,101687.23
2017-08-13T19:12:54.921Z,101691.78
2017-08-13T19:17:56.869Z,101692.91
2017-08-13T19:22:58.884Z,101696.53
2017-08-13T19:28:00.839Z,101699.88
2017-08-13T19:33:03.559Z,101701.53
2017-08-13T19:38:05.503Z,101713.30
2017-08-13T19:43:08.138Z,101725.08
2017-08-13T19:48:10.404Z,101723.98
2017-08-13T19:53:12.370Z,101725.25
2017-08-13T19:58:14.311Z,101728.87
2017-08-13T20:03:16.296Z,101730.19
2017-08-13T20:08:19.022Z,101731.33
2017-08-13T20:13:24.359Z,101738.27
2017-08-13T20:18:26.693Z,101733.61
2017-08-13T20:23:28.662Z,101737.42
2017-08-13T20:28:30.727Z,101739.81
2017-08-13T20:33:32.708Z,101744.00
2017-08-13T20:38:35.575Z,101744.41
2017-08-13T20:43:38.283Z,101747.36
2017-08-13T20:48:40.319Z,101747.59
2017-08-13T20:53:42.287Z,101756.16
2017-08-13T20:58:44.282Z,101755.36
2017-08-13T21:03:46.991Z,101762.14
2017-08-13T21:08:48.928Z,101766.45
2017-08-13T21:13:50.975Z,101766.27
2017-08-13T21:18:52.954Z,101771.49
2017-08-13T21:23:54.958Z,101772.74
2017-08-13T21:28:56.958Z,101776.26
2017-08-13T21:33:58.938Z,101776.94
2017-08-13T21:39:00.898Z,101781.16
2017-08-13T21:44:03.570Z,101784.70
2017-08-13T21:49:05.539Z,101788.07
2017-08-13T21:54:07.499Z,101791.72
2017-08-13T21:59:09.468Z,101799.33
2017-08-13T22:04:12.171Z,101789.94
2017-08-13T22:09:14.934Z,101790.61
2017-08-13T22:14:16.948Z,101793.33
2017-08-13T22:19:18.911Z,101796.18
2017-08-13T22:24:21.465Z,101792.28
2017-08-13T22:29:24.161Z,101791.84
2017-08-13T22:34:26.200Z,101786.31
2017-08-13T22:39:28.241Z,101792.02
2017-08-13T22:44:30.251Z,101784.88
2017-08-13T22:49:32.200Z,101791.28
2017-08-13T22:54:34.139Z,101796.45
2017-08-13T22:59:37.875Z,101798.09
2017-08-13T23:04:40.317Z,101806.77
2017-08-13T23:09:42.339Z,101803.54
2017-08-13T23:14:45.558Z,101808.61
2017-08-13T23:19:47.515Z,101818.52
2017-08-13T23:24:49.460Z,101818.27
2017-08-13T23:29:51.375Z,101823.16
2017-08-13T23:34:53.351Z,101814.59
2017-08-13T23:39:55.314Z,101816.09
2017-08-13T23:44:57.538Z,101815.24
2017-08-13T23:49:59.495Z,101812.81
2017-08-13T23:55:01.807Z,101811.91
